Time;durP1;ratioP1;P1;durP2;ratioP2;P2;SDS_P1;SDS_P2;PMS_P1;PMS_P2;Temp;Humidity;BMP_temperature;BMP_pressure;BME280_temperature;BME280_humidity;BME280_pressure;Samples;Min_cycle;Max_cycle;Signal;HPM_P1;HPM_P2
2023/10/18 00:00:53;;;;;;;21.67;11.80;;;;;;;;;;5022305;28;20052;-66
2023/10/18 00:03:19;;;;;;;20.90;11.45;;;;;;;;;;5026893;28;20040;-68
2023/10/18 00:05:45;;;;;;;21.02;10.95;;;;;;;;;;5026658;28;20477;-68
2023/10/18 00:08:11;;;;;;;22.80;11.98;;;;;;;;;;5027134;28;20450;-68
2023/10/18 00:10:36;;;;;;;34.13;11.93;;;;;;;;;;5027672;28;20037;-70
2023/10/18 00:13:01;;;;;;;23.63;10.48;;;;;;;;;;5026921;28;20100;-68
2023/10/18 00:15:26;;;;;;;22.38;12.05;;;;;;;;;;5025772;28;20048;-68
2023/10/18 00:17:52;;;;;;;20.38;10.95;;;;;;;;;;5026439;28;20098;-65
2023/10/18 00:20:23;;;;;;;21.48;10.90;;;;;;;;;;5025818;28;20524;-68
2023/10/18 00:22:48;;;;;;;21.33;10.93;;;;;;;;;;5026737;28;20064;-68
2023/10/18 00:25:15;;;;;;;20.88;11.95;;;;;;;;;;5026444;28;20420;-68
2023/10/18 00:27:47;;;;;;;24.52;11.93;;;;;;;;;;5026413;28;20021;-69
2023/10/18 00:30:12;;;;;;;19.02;10.02;;;;;;;;;;5025438;28;20024;-68
2023/10/18 00:32:38;;;;;;;23.75;10.82;;;;;;;;;;5026335;28;20022;-69
2023/10/18 00:35:12;;;;;;;23.45;11.65;;;;;;;;;;5026098;28;20471;-69
2023/10/18 00:37:38;;;;;;;16.90;10.07;;;;;;;;;;5026641;28;20530;-68
2023/10/18 00:40:07;;;;;;;22.95;11.63;;;;;;;;;;5026634;28;20103;-68
2023/10/18 00:42:35;;;;;;;21.48;11.43;;;;;;;;;;5008860;28;20021;-67
2023/10/18 00:45:08;;;;;;;18.05;9.70;;;;;;;;;;5025586;28;20695;-70
2023/10/18 00:47:35;;;;;;;21.42;11.57;;;;;;;;;;5026466;28;20564;-68
2023/10/18 00:50:01;;;;;;;19.75;11.13;;;;;;;;;;5021220;28;20017;-67
2023/10/18 00:52:26;;;;;;;24.48;10.73;;;;;;;;;;5020139;28;20016;-68
2023/10/18 00:54:53;;;;;;;23.77;10.95;;;;;;;;;;5025826;28;20088;-68
2023/10/18 00:57:22;;;;;;;22.35;12.20;;;;;;;;;;5026277;28;20029;-68
2023/10/18 00:59:49;;;;;;;19.48;10.70;;;;;;;;;;5024304;28;20035;-68
2023/10/18 01:02:19;;;;;;;24.67;11.02;;;;;;;;;;5016642;28;20100;-68
2023/10/18 01:04:44;;;;;;;21.48;11.10;;;;;;;;;;5022495;28;20013;-67
2023/10/18 01:07:14;;;;;;;27.00;11.65;;;;;;;;;;5024248;28;20023;-67
2023/10/18 01:09:47;;;;;;;21.33;9.93;;;;;;;;;;5025111;28;20056;-68
2023/10/18 01:12:14;;;;;;;20.48;10.48;;;;;;;;;;5025157;28;20097;-66
2023/10/18 01:14:40;;;;;;;22.50;11.05;;;;;;;;;;5017801;28;20034;-67
2023/10/18 01:17:06;;;;;;;24.38;11.13;;;;;;;;;;5025160;28;20026;-66
2023/10/18 01:19:32;;;;;;;16.63;9.15;;;;;;;;;;5026534;28;20057;-68
2023/10/18 01:21:57;;;;;;;17.45;9.20;;;;;;;;;;5025683;28;20018;-68
2023/10/18 01:24:22;;;;;;;22.00;10.70;;;;;;;;;;5026316;28;20009;-68
2023/10/18 01:26:47;;;;;;;20.20;9.82;;;;;;;;;;5024309;28;20032;-65
2023/10/18 01:29:13;;;;;;;16.63;8.93;;;;;;;;;;5023585;28;20096;-68
2023/10/18 01:31:44;;;;;;;19.13;10.13;;;;;;;;;;5022873;28;20027;-66
2023/10/18 01:34:10;;;;;;;15.98;8.82;;;;;;;;;;5025899;28;20041;-67
2023/10/18 01:36:38;;;;;;;17.48;9.65;;;;;;;;;;5024932;28;20132;-66
2023/10/18 01:39:08;;;;;;;20.05;10.35;;;;;;;;;;5018463;28;20010;-67
2023/10/18 01:41:37;;;;;;;19.52;10.05;;;;;;;;;;5026129;28;20026;-67
2023/10/18 01:44:06;;;;;;;20.88;10.07;;;;;;;;;;5023755;28;20052;-67
2023/10/18 01:46:44;;;;;;;20.70;10.77;;;;;;;;;;5023518;28;20025;-67
2023/10/18 01:49:13;;;;;;;22.27;10.73;;;;;;;;;;5017850;28;20488;-67
2023/10/18 01:51:38;;;;;;;19.67;10.43;;;;;;;;;;5025754;28;20040;-66
2023/10/18 01:54:12;;;;;;;21.50;9.82;;;;;;;;;;5025982;28;20022;-68
2023/10/18 01:56:37;;;;;;;19.20;9.98;;;;;;;;;;5022011;28;20079;-68
2023/10/18 01:59:04;;;;;;;20.13;11.65;;;;;;;;;;5026684;28;20108;-66
2023/10/18 02:01:30;;;;;;;17.15;9.95;;;;;;;;;;5029573;28;20026;-65
2023/10/18 02:03:59;;;;;;;19.15;9.65;;;;;;;;;;5028947;28;20044;-67
2023/10/18 02:06:25;;;;;;;21.27;10.68;;;;;;;;;;5028431;28;20025;-67
2023/10/18 02:08:50;;;;;;;20.30;9.63;;;;;;;;;;5029613;28;20409;-66
2023/10/18 02:11:15;;;;;;;21.13;9.65;;;;;;;;;;5029741;28;20121;-68
2023/10/18 02:13:41;;;;;;;23.65;10.68;;;;;;;;;;5028692;28;20021;-67
2023/10/18 02:16:09;;;;;;;24.05;11.15;;;;;;;;;;5028670;28;20119;-68
2023/10/18 02:18:34;;;;;;;17.70;10.13;;;;;;;;;;5028562;28;20083;-67
2023/10/18 02:21:00;;;;;;;19.45;10.88;;;;;;;;;;5028945;28;20033;-67
2023/10/18 02:23:32;;;;;;;22.20;10.15;;;;;;;;;;5029404;28;20018;-67
2023/10/18 02:25:58;;;;;;;20.42;10.75;;;;;;;;;;5028657;28;20486;-69
2023/10/18 02:28:23;;;;;;;20.38;9.93;;;;;;;;;;5028797;28;20014;-67
2023/10/18 02:31:10;;;;;;;18.20;9.60;;;;;;;;;;5029143;28;20018;-68
2023/10/18 02:33:44;;;;;;;21.25;10.57;;;;;;;;;;5027585;28;20040;-68
2023/10/18 02:36:13;;;;;;;32.63;10.38;;;;;;;;;;5027980;28;20030;-68
2023/10/18 02:38:40;;;;;;;27.02;10.13;;;;;;;;;;5021070;28;20124;-67
2023/10/18 02:41:21;;;;;;;23.98;10.75;;;;;;;;;;5011244;28;20109;-65
2023/10/18 02:43:47;;;;;;;23.17;10.10;;;;;;;;;;5027383;28;20017;-66
2023/10/18 02:46:14;;;;;;;22.50;10.38;;;;;;;;;;5028041;28;20032;-67
2023/10/18 02:48:41;;;;;;;22.38;9.88;;;;;;;;;;5027975;28;20040;-64
2023/10/18 02:51:06;;;;;;;23.80;10.95;;;;;;;;;;5020880;28;20013;-69
2023/10/18 02:53:33;;;;;;;18.25;9.32;;;;;;;;;;5029316;28;20018;-66
2023/10/18 02:55:59;;;;;;;19.70;10.73;;;;;;;;;;5028186;28;20057;-68
2023/10/18 02:58:33;;;;;;;23.45;9.38;;;;;;;;;;5028500;28;20048;-68
2023/10/18 03:01:05;;;;;;;18.17;9.80;;;;;;;;;;5028630;28;20014;-66
2023/10/18 03:03:30;;;;;;;20.13;9.60;;;;;;;;;;5027454;28;20063;-68
2023/10/18 03:05:56;;;;;;;26.90;11.32;;;;;;;;;;5026805;28;20061;-67
2023/10/18 03:08:21;;;;;;;26.58;10.93;;;;;;;;;;5028247;28;20476;-65
2023/10/18 03:10:47;;;;;;;21.92;9.80;;;;;;;;;;5027271;28;20049;-67
2023/10/18 03:13:13;;;;;;;19.45;9.95;;;;;;;;;;5028003;28;20017;-66
2023/10/18 03:15:52;;;;;;;22.30;10.18;;;;;;;;;;5027677;28;20083;-65
2023/10/18 03:18:19;;;;;;;22.67;10.43;;;;;;;;;;5022235;28;20079;-67
2023/10/18 03:20:44;;;;;;;24.63;9.90;;;;;;;;;;5028206;28;20489;-67
2023/10/18 03:23:13;;;;;;;20.65;10.25;;;;;;;;;;5027692;28;20044;-65
2023/10/18 03:25:39;;;;;;;20.08;10.10;;;;;;;;;;5028280;28;20021;-67
2023/10/18 03:28:04;;;;;;;17.90;9.52;;;;;;;;;;5026875;28;20021;-67
2023/10/18 03:30:47;;;;;;;26.05;10.85;;;;;;;;;;5027618;28;20104;-66
2023/10/18 03:33:12;;;;;;;22.90;10.13;;;;;;;;;;5021334;28;20040;-66
2023/10/18 03:35:40;;;;;;;20.95;10.75;;;;;;;;;;5027412;28;20018;-67
2023/10/18 03:38:15;;;;;;;21.83;9.63;;;;;;;;;;5019655;28;20044;-67
2023/10/18 03:40:46;;;;;;;18.98;9.48;;;;;;;;;;5025041;28;20068;-67
2023/10/18 03:43:11;;;;;;;21.88;9.98;;;;;;;;;;5027659;28;20408;-67
2023/10/18 03:46:07;;;;;;;25.13;11.35;;;;;;;;;;5027424;28;20025;-65
2023/10/18 03:48:27;;;;;;;23.40;11.27;;;;;;;;;;5025817;28;20116;-68
2023/10/18 03:50:55;;;;;;;20.15;10.13;;;;;;;;;;5019691;28;20156;-70
2023/10/18 03:53:21;;;;;;;19.85;9.95;;;;;;;;;;5017149;28;20527;-64
2023/10/18 03:55:49;;;;;;;20.55;10.38;;;;;;;;;;5024840;28;20033;-70
2023/10/18 03:58:22;;;;;;;20.15;10.50;;;;;;;;;;5026808;28;20128;-66
2023/10/18 04:00:47;;;;;;;18.77;9.43;;;;;;;;;;5027338;28;20068;-67
2023/10/18 04:03:15;;;;;;;27.27;10.65;;;;;;;;;;5026123;28;20115;-67
2023/10/18 04:05:49;;;;;;;23.13;10.33;;;;;;;;;;5020692;28;20480;-67
2023/10/18 04:08:15;;;;;;;19.00;9.52;;;;;;;;;;5027305;28;20149;-67
2023/10/18 04:10:40;;;;;;;20.77;9.95;;;;;;;;;;5027919;28;20148;-64
2023/10/18 04:13:11;;;;;;;21.20;10.23;;;;;;;;;;5018143;28;20375;-66
2023/10/18 04:15:37;;;;;;;19.63;10.48;;;;;;;;;;5020130;28;20041;-67
2023/10/18 04:20:34;;;;;;;28.45;11.23;;;;;;;;;;5026551;28;20033;-65
2023/10/18 04:23:02;;;;;;;23.23;10.23;;;;;;;;;;5023994;28;20458;-67
2023/10/18 04:25:30;;;;;;;23.13;11.95;;;;;;;;;;5026069;28;20527;-67
2023/10/18 04:27:59;;;;;;;25.23;9.80;;;;;;;;;;5026581;28;20033;-68
2023/10/18 04:30:36;;;;;;;28.27;12.23;;;;;;;;;;5025107;28;20080;-65
2023/10/18 04:33:15;;;;;;;28.27;11.05;;;;;;;;;;5025089;28;20456;-67
2023/10/18 04:35:47;;;;;;;23.52;10.60;;;;;;;;;;5023888;28;20576;-68
2023/10/18 04:38:21;;;;;;;26.15;11.13;;;;;;;;;;5023852;28;20144;-68
2023/10/18 04:41:04;;;;;;;19.60;10.32;;;;;;;;;;5023910;28;20151;-67
2023/10/18 04:43:32;;;;;;;20.80;10.43;;;;;;;;;;5022529;28;20030;-66
2023/10/18 04:46:02;;;;;;;18.50;10.38;;;;;;;;;;5024998;28;20028;-69
2023/10/18 04:51:26;;;;;;;17.75;9.10;;;;;;;;;;5007865;28;20080;-68
2023/10/18 04:53:52;;;;;;;22.80;10.02;;;;;;;;;;5009342;28;20034;-67
2023/10/18 04:56:18;;;;;;;25.15;9.88;;;;;;;;;;5005512;28;20033;-66
2023/10/18 04:58:43;;;;;;;24.35;11.02;;;;;;;;;;5012305;28;20028;-66
2023/10/18 05:01:13;;;;;;;17.13;9.30;;;;;;;;;;5010410;28;20014;-69
2023/10/18 05:03:39;;;;;;;24.80;9.30;;;;;;;;;;5008422;28;20034;-68
2023/10/18 05:06:05;;;;;;;17.38;9.18;;;;;;;;;;5009262;28;20034;-67
2023/10/18 05:08:30;;;;;;;25.05;11.10;;;;;;;;;;5009557;28;20038;-66
2023/10/18 05:11:04;;;;;;;24.15;11.13;;;;;;;;;;5009423;28;20553;-65
2023/10/18 05:13:42;;;;;;;21.77;11.02;;;;;;;;;;5012590;28;20056;-68
2023/10/18 05:16:10;;;;;;;18.10;10.07;;;;;;;;;;5022175;28;20137;-67
2023/10/18 05:18:37;;;;;;;18.33;9.65;;;;;;;;;;5004150;28;20612;-69
2023/10/18 05:21:08;;;;;;;17.83;9.35;;;;;;;;;;5018249;28;20038;-67
2023/10/18 05:23:35;;;;;;;27.75;10.13;;;;;;;;;;5018600;28;20018;-71
2023/10/18 05:28:47;;;;;;;24.55;9.80;;;;;;;;;;5017725;28;20025;-70
2023/10/18 05:32:37;;;;;;;29.23;11.00;;;;;;;;;;5025585;28;20396;-67
2023/10/18 05:41:59;;;;;;;24.08;10.45;;;;;;;;;;5029812;28;20029;-65
2023/10/18 05:44:24;;;;;;;28.67;12.98;;;;;;;;;;5030187;28;20033;-67
2023/10/18 05:46:50;;;;;;;28.10;10.90;;;;;;;;;;5028927;28;20076;-63
2023/10/18 05:49:16;;;;;;;20.13;10.18;;;;;;;;;;5029001;28;20511;-67
2023/10/18 05:51:53;;;;;;;19.83;10.45;;;;;;;;;;5017405;28;20060;-67
2023/10/18 05:54:21;;;;;;;20.92;10.98;;;;;;;;;;5007350;28;20076;-66
2023/10/18 05:56:49;;;;;;;25.95;10.40;;;;;;;;;;5029338;28;20022;-65
2023/10/18 06:01:50;;;;;;;29.75;11.05;;;;;;;;;;5029603;28;20579;-67
2023/10/18 06:04:23;;;;;;;25.98;10.57;;;;;;;;;;5029320;28;20021;-65
2023/10/18 06:06:58;;;;;;;30.55;11.13;;;;;;;;;;5028384;28;20037;-68
2023/10/18 06:09:26;;;;;;;25.00;10.57;;;;;;;;;;5030385;28;20021;-67
2023/10/18 06:11:52;;;;;;;22.08;10.40;;;;;;;;;;5029133;28;20021;-66
2023/10/18 06:14:17;;;;;;;24.08;10.50;;;;;;;;;;5027296;28;20031;-64
2023/10/18 06:16:43;;;;;;;23.85;10.88;;;;;;;;;;5028031;28;20049;-66
2023/10/18 06:19:13;;;;;;;20.83;9.68;;;;;;;;;;5029427;28;20024;-67
2023/10/18 06:21:38;;;;;;;28.52;10.25;;;;;;;;;;5029763;28;20029;-67
2023/10/18 06:24:10;;;;;;;21.98;10.45;;;;;;;;;;5030522;28;20044;-66
2023/10/18 06:26:38;;;;;;;25.30;10.55;;;;;;;;;;5028977;28;20026;-64
2023/10/18 06:29:11;;;;;;;20.75;10.38;;;;;;;;;;5029358;28;20021;-66
2023/10/18 06:31:40;;;;;;;29.25;11.30;;;;;;;;;;5029025;28;20083;-67
2023/10/18 06:34:10;;;;;;;19.88;10.38;;;;;;;;;;5028504;28;20026;-67
2023/10/18 06:36:38;;;;;;;24.55;11.02;;;;;;;;;;5009902;28;20052;-67
2023/10/18 06:39:04;;;;;;;21.80;10.48;;;;;;;;;;5029335;28;20018;-68
2023/10/18 06:41:30;;;;;;;23.10;10.57;;;;;;;;;;5029149;28;20179;-66
2023/10/18 06:43:58;;;;;;;23.45;11.88;;;;;;;;;;5029437;28;20120;-66
2023/10/18 06:46:27;;;;;;;25.83;11.88;;;;;;;;;;5028144;28;20022;-67
2023/10/18 06:48:58;;;;;;;21.35;11.52;;;;;;;;;;5026290;28;20021;-67
2023/10/18 06:54:13;;;;;;;23.27;10.40;;;;;;;;;;5022948;28;20044;-68
2023/10/18 06:56:57;;;;;;;22.92;10.52;;;;;;;;;;5023863;28;20029;-68
2023/10/18 06:59:27;;;;;;;26.48;10.15;;;;;;;;;;5026065;28;20106;-68
2023/10/18 07:01:57;;;;;;;19.73;9.40;;;;;;;;;;5029025;28;20049;-66
2023/10/18 07:04:34;;;;;;;20.45;9.95;;;;;;;;;;5026954;28;20032;-67
2023/10/18 07:07:00;;;;;;;22.48;10.48;;;;;;;;;;5027238;28;20589;-65
2023/10/18 07:09:26;;;;;;;23.23;10.18;;;;;;;;;;5024005;28;20018;-68
2023/10/18 07:11:52;;;;;;;24.75;10.48;;;;;;;;;;5010902;28;20048;-66
2023/10/18 07:14:19;;;;;;;20.88;10.73;;;;;;;;;;5028696;28;20017;-67
2023/10/18 07:16:48;;;;;;;32.75;10.93;;;;;;;;;;5026363;28;20070;-68
2023/10/18 07:22:21;;;;;;;32.20;12.18;;;;;;;;;;4955729;28;20129;-68
2023/10/18 07:24:47;;;;;;;32.88;10.52;;;;;;;;;;5012659;28;20029;-64
2023/10/18 07:27:17;;;;;;;29.10;10.30;;;;;;;;;;5027976;28;20484;-65
2023/10/18 07:29:48;;;;;;;18.25;9.77;;;;;;;;;;5028514;28;20021;-67
2023/10/18 07:32:14;;;;;;;24.95;11.18;;;;;;;;;;5028854;28;20024;-65
2023/10/18 07:34:39;;;;;;;37.25;12.05;;;;;;;;;;5021893;23;20053;-70
2023/10/18 07:37:24;;;;;;;27.80;11.10;;;;;;;;;;5008889;28;20048;-70
2023/10/18 07:39:56;;;;;;;22.65;10.65;;;;;;;;;;5009767;28;20026;-69
2023/10/18 07:42:22;;;;;;;25.42;11.05;;;;;;;;;;5010011;28;20010;-69
2023/10/18 07:44:52;;;;;;;28.08;11.93;;;;;;;;;;5024975;28;20018;-68
2023/10/18 07:47:19;;;;;;;22.33;10.50;;;;;;;;;;5023068;28;20024;-69
2023/10/18 07:49:45;;;;;;;24.25;11.57;;;;;;;;;;5023827;28;20029;-69
2023/10/18 07:52:10;;;;;;;25.33;11.35;;;;;;;;;;5029032;28;20051;-69
2023/10/18 07:54:35;;;;;;;21.02;11.27;;;;;;;;;;5029072;28;20022;-69
2023/10/18 07:57:01;;;;;;;24.95;12.02;;;;;;;;;;5020441;28;20030;-67
2023/10/18 07:59:29;;;;;;;21.48;10.73;;;;;;;;;;5025772;28;20500;-68
2023/10/18 08:04:43;;;;;;;24.43;12.77;;;;;;;;;;5018125;28;20247;-69
2023/10/18 08:07:15;;;;;;;24.10;10.93;;;;;;;;;;5027807;28;20025;-68
2023/10/18 08:09:41;;;;;;;25.35;10.88;;;;;;;;;;5017636;28;20026;-66
2023/10/18 08:12:07;;;;;;;27.08;10.82;;;;;;;;;;5025364;28;20060;-68
2023/10/18 08:14:33;;;;;;;23.48;11.70;;;;;;;;;;5027593;28;20019;-71
2023/10/18 08:17:08;;;;;;;26.23;11.93;;;;;;;;;;5021556;28;20030;-68
2023/10/18 08:19:43;;;;;;;28.77;11.43;;;;;;;;;;5023559;28;20026;-67
2023/10/18 08:24:37;;;;;;;21.38;10.80;;;;;;;;;;5029695;28;20100;-68
2023/10/18 08:27:09;;;;;;;19.05;9.98;;;;;;;;;;5025217;28;20024;-67
2023/10/18 08:29:37;;;;;;;22.35;10.55;;;;;;;;;;5024407;28;20099;-68
2023/10/18 08:32:14;;;;;;;21.17;10.10;;;;;;;;;;5017894;28;20100;-65
2023/10/18 08:34:40;;;;;;;26.92;9.32;;;;;;;;;;5025510;28;20805;-68
2023/10/18 08:37:06;;;;;;;17.70;9.43;;;;;;;;;;5027052;28;20025;-68
2023/10/18 08:39:32;;;;;;;20.15;9.25;;;;;;;;;;5028716;28;20041;-68
2023/10/18 08:42:05;;;;;;;15.75;8.98;;;;;;;;;;5024023;28;20022;-68
2023/10/18 08:44:31;;;;;;;21.60;9.45;;;;;;;;;;5020445;28;20017;-68
2023/10/18 08:49:34;;;;;;;17.65;9.40;;;;;;;;;;5027266;28;20045;-65
2023/10/18 08:52:08;;;;;;;21.70;9.85;;;;;;;;;;5020863;28;20084;-69
2023/10/18 08:54:34;;;;;;;15.77;7.85;;;;;;;;;;5025147;28;20021;-68
2023/10/18 08:57:06;;;;;;;20.75;9.30;;;;;;;;;;5018609;28;20482;-68
2023/10/18 08:59:39;;;;;;;25.77;8.82;;;;;;;;;;5024730;28;20022;-67
2023/10/18 09:05:01;;;;;;;24.77;10.02;;;;;;;;;;5003769;28;20050;-66
2023/10/18 09:07:45;;;;;;;19.25;9.20;;;;;;;;;;5023044;28;20014;-68
2023/10/18 09:10:13;;;;;;;15.88;9.10;;;;;;;;;;5025940;28;20095;-67
2023/10/18 09:17:56;;;;;;;14.85;7.90;;;;;;;;;;5029073;28;20542;-68
2023/10/18 09:20:25;;;;;;;18.60;7.32;;;;;;;;;;5016544;28;20017;-69
2023/10/18 09:22:51;;;;;;;18.95;7.53;;;;;;;;;;5032094;28;20113;-69
2023/10/18 09:25:17;;;;;;;17.52;8.43;;;;;;;;;;5032105;28;20104;-68
2023/10/18 09:27:45;;;;;;;18.98;7.90;;;;;;;;;;5032562;28;20018;-68
2023/10/18 09:30:13;;;;;;;16.10;8.77;;;;;;;;;;5021358;28;20032;-68
2023/10/18 09:32:38;;;;;;;26.38;9.43;;;;;;;;;;5030557;28;20048;-69
2023/10/18 09:35:10;;;;;;;19.70;8.07;;;;;;;;;;5024089;28;20496;-69
2023/10/18 09:37:35;;;;;;;17.08;8.38;;;;;;;;;;5014175;28;20053;-69
2023/10/18 09:40:02;;;;;;;19.13;8.18;;;;;;;;;;5031652;28;20623;-69
2023/10/18 09:42:28;;;;;;;18.10;8.88;;;;;;;;;;5032275;28;20515;-68
2023/10/18 09:44:53;;;;;;;14.45;7.57;;;;;;;;;;5030340;28;20021;-68
2023/10/18 09:47:23;;;;;;;18.80;8.40;;;;;;;;;;5026891;28;20036;-69
2023/10/18 09:49:49;;;;;;;14.05;6.75;;;;;;;;;;5026476;28;20108;-68
2023/10/18 09:52:15;;;;;;;15.55;7.50;;;;;;;;;;5026220;28;20140;-67
2023/10/18 09:54:47;;;;;;;18.30;6.57;;;;;;;;;;5032325;28;20041;-68
2023/10/18 09:57:18;;;;;;;20.08;7.80;;;;;;;;;;5030652;28;20101;-68
2023/10/18 09:59:47;;;;;;;17.38;7.22;;;;;;;;;;5025541;28;20068;-69
2023/10/18 10:02:15;;;;;;;20.17;7.85;;;;;;;;;;5024504;28;20100;-71
2023/10/18 10:04:42;;;;;;;14.63;7.97;;;;;;;;;;5024894;28;20032;-67
2023/10/18 10:09:59;;;;;;;14.20;7.63;;;;;;;;;;5029844;28;20113;-70
2023/10/18 10:12:28;;;;;;;14.30;7.90;;;;;;;;;;5026588;28;20018;-69
2023/10/18 10:14:53;;;;;;;13.80;7.53;;;;;;;;;;5030711;28;20037;-69
2023/10/18 10:17:20;;;;;;;15.05;7.30;;;;;;;;;;5030406;28;20075;-70
2023/10/18 10:19:50;;;;;;;17.92;8.10;;;;;;;;;;5026356;28;20018;-70
2023/10/18 10:22:17;;;;;;;15.32;7.95;;;;;;;;;;5024977;28;20025;-72
2023/10/18 10:24:43;;;;;;;18.27;7.75;;;;;;;;;;5031177;28;20493;-70
2023/10/18 10:27:27;;;;;;;16.65;7.32;;;;;;;;;;5030361;28;20108;-70
2023/10/18 10:29:58;;;;;;;28.27;8.65;;;;;;;;;;5023894;28;20080;-70
2023/10/18 10:32:27;;;;;;;16.00;7.00;;;;;;;;;;5030335;28;20017;-73
2023/10/18 10:35:10;;;;;;;15.55;6.47;;;;;;;;;;5012376;28;20029;-71
2023/10/18 10:37:44;;;;;;;19.98;7.82;;;;;;;;;;5030181;28;20071;-71
2023/10/18 10:40:19;;;;;;;11.30;6.90;;;;;;;;;;5028034;28;20075;-69
2023/10/18 10:42:48;;;;;;;12.63;7.30;;;;;;;;;;5017989;28;20017;-71
2023/10/18 10:45:38;;;;;;;14.85;6.63;;;;;;;;;;5026560;28;20381;-67
2023/10/18 10:48:15;;;;;;;16.15;7.43;;;;;;;;;;5029182;28;20431;-70
2023/10/18 10:50:50;;;;;;;15.25;7.63;;;;;;;;;;5027862;28;20435;-70
2023/10/18 10:53:31;;;;;;;18.77;7.28;;;;;;;;;;5022177;28;20017;-69
2023/10/18 10:55:56;;;;;;;15.20;7.35;;;;;;;;;;5021488;28;20026;-69
2023/10/18 10:58:22;;;;;;;19.25;7.88;;;;;;;;;;5030097;28;20014;-70
2023/10/18 11:01:03;;;;;;;22.00;8.07;;;;;;;;;;5030704;28;20013;-69
2023/10/18 11:03:30;;;;;;;15.50;6.95;;;;;;;;;;5027366;28;20024;-72
2023/10/18 11:05:58;;;;;;;17.27;7.15;;;;;;;;;;5029894;28;20093;-70
2023/10/18 11:08:24;;;;;;;14.67;6.93;;;;;;;;;;5029058;28;20053;-72
2023/10/18 11:10:49;;;;;;;16.27;7.43;;;;;;;;;;5033624;28;20749;-68
2023/10/18 11:13:15;;;;;;;35.90;9.65;;;;;;;;;;5033572;28;20101;-73
2023/10/18 11:15:42;;;;;;;15.70;7.85;;;;;;;;;;5030255;28;20436;-71
2023/10/18 11:18:20;;;;;;;16.25;7.30;;;;;;;;;;5030031;28;20013;-72
2023/10/18 11:20:48;;;;;;;15.05;6.82;;;;;;;;;;5020606;28;20029;-70
2023/10/18 11:23:14;;;;;;;13.77;7.30;;;;;;;;;;5034087;28;20013;-71
2023/10/18 11:25:41;;;;;;;12.07;6.40;;;;;;;;;;5033911;28;20040;-71
2023/10/18 11:28:20;;;;;;;16.35;7.25;;;;;;;;;;5031616;28;20143;-70
2023/10/18 11:30:45;;;;;;;;;;;;;;;;;;5026517;28;20064;-68
2023/10/18 11:33:15;;;;;;;14.73;6.78;;;;;;;;;;5022681;28;20392;-69
2023/10/18 11:38:10;;;;;;;17.98;7.32;;;;;;;;;;5029436;28;20033;-70
2023/10/18 11:40:40;;;;;;;15.68;7.03;;;;;;;;;;5034450;28;20045;-71
2023/10/18 11:43:09;;;;;;;13.43;6.40;;;;;;;;;;5033410;28;20087;-71
2023/10/18 11:45:36;;;;;;;20.77;6.55;;;;;;;;;;5013684;28;20040;-69
2023/10/18 11:48:06;;;;;;;19.65;5.95;;;;;;;;;;5027695;28;20100;-68
2023/10/18 11:50:37;;;;;;;12.95;5.85;;;;;;;;;;5029919;28;20018;-69
2023/10/18 11:53:12;;;;;;;12.27;5.97;;;;;;;;;;5026958;28;20043;-77
2023/10/18 11:55:57;;;;;;;12.15;5.90;;;;;;;;;;5027039;28;20449;-70
2023/10/18 11:58:23;;;;;;;13.70;6.38;;;;;;;;;;5018975;28;20017;-70
2023/10/18 12:00:49;;;;;;;18.77;5.97;;;;;;;;;;5022547;28;20397;-70
2023/10/18 12:03:14;;;;;;;14.30;6.78;;;;;;;;;;5028544;28;20040;-70
2023/10/18 12:05:42;;;;;;;21.65;7.43;;;;;;;;;;5026571;28;20100;-70
2023/10/18 12:08:12;;;;;;;16.77;6.53;;;;;;;;;;5021297;28;20527;-71
2023/10/18 12:10:37;;;;;;;12.00;5.90;;;;;;;;;;5024780;28;20026;-71
2023/10/18 12:13:07;;;;;;;11.10;5.63;;;;;;;;;;5027895;28;20032;-70
2023/10/18 12:15:36;;;;;;;14.93;5.95;;;;;;;;;;5028256;28;20538;-69
2023/10/18 12:18:04;;;;;;;13.35;6.38;;;;;;;;;;5028084;28;20019;-68
2023/10/18 12:20:36;;;;;;;12.15;6.18;;;;;;;;;;5024618;28;20022;-70
2023/10/18 12:23:09;;;;;;;16.70;6.38;;;;;;;;;;5026198;28;20029;-69
2023/10/18 12:25:38;;;;;;;17.02;7.20;;;;;;;;;;5027680;28;20103;-69
2023/10/18 12:28:03;;;;;;;11.07;6.72;;;;;;;;;;5026504;28;20021;-69
2023/10/18 12:30:33;;;;;;;13.70;7.15;;;;;;;;;;5027493;28;20028;-68
2023/10/18 12:33:04;;;;;;;15.77;6.78;;;;;;;;;;5027330;28;20029;-69
2023/10/18 12:35:29;;;;;;;12.80;6.38;;;;;;;;;;5027725;28;20030;-65
2023/10/18 12:37:54;;;;;;;13.15;6.47;;;;;;;;;;5021263;28;20033;-68
2023/10/18 12:40:39;;;;;;;14.93;7.30;;;;;;;;;;5028228;28;20018;-70
2023/10/18 12:43:06;;;;;;;13.80;6.72;;;;;;;;;;5019890;28;20756;-69
2023/10/18 12:45:42;;;;;;;14.23;7.50;;;;;;;;;;5024011;28;20095;-67
2023/10/18 12:48:09;;;;;;;23.58;8.02;;;;;;;;;;5026584;28;20032;-67
2023/10/18 12:50:34;;;;;;;13.93;7.25;;;;;;;;;;5027105;28;20017;-69
2023/10/18 12:55:46;;;;;;;14.20;7.70;;;;;;;;;;5027165;28;20515;-71
2023/10/18 12:58:18;;;;;;;13.85;7.18;;;;;;;;;;5027139;28;20025;-69
2023/10/18 13:00:44;;;;;;;18.98;7.78;;;;;;;;;;5027947;28;20056;-70
2023/10/18 13:05:43;;;;;;;14.73;7.38;;;;;;;;;;5027595;28;20037;-69
2023/10/18 13:08:16;;;;;;;14.00;6.85;;;;;;;;;;5026132;28;20230;-68
2023/10/18 13:10:48;;;;;;;13.88;6.38;;;;;;;;;;5010188;28;20516;-71
2023/10/18 13:13:16;;;;;;;13.70;6.57;;;;;;;;;;5022821;28;20030;-71
2023/10/18 13:15:41;;;;;;;16.17;6.63;;;;;;;;;;5025247;28;20087;-71
2023/10/18 13:18:07;;;;;;;20.05;6.80;;;;;;;;;;5022465;28;20017;-69
2023/10/18 13:20:36;;;;;;;13.80;7.15;;;;;;;;;;5028017;28;20017;-71
2023/10/18 13:23:01;;;;;;;15.07;6.82;;;;;;;;;;5026756;28;20073;-70
2023/10/18 13:25:36;;;;;;;18.20;6.90;;;;;;;;;;5026480;28;20463;-66
2023/10/18 13:28:05;;;;;;;20.77;6.75;;;;;;;;;;5026509;28;20087;-71
2023/10/18 13:30:39;;;;;;;12.85;6.55;;;;;;;;;;5027532;28;20025;-70
2023/10/18 13:33:11;;;;;;;19.13;7.15;;;;;;;;;;5026454;28;20021;-68
2023/10/18 13:35:39;;;;;;;17.10;7.32;;;;;;;;;;5027039;28;20014;-68
2023/10/18 13:38:04;;;;;;;14.73;7.10;;;;;;;;;;5025879;28;20025;-69
2023/10/18 13:40:29;;;;;;;18.50;6.97;;;;;;;;;;5027579;28;20560;-67
2023/10/18 13:42:55;;;;;;;16.40;7.43;;;;;;;;;;5027491;28;20025;-69
2023/10/18 13:45:20;;;;;;;11.57;6.60;;;;;;;;;;5026173;28;20561;-71
2023/10/18 13:47:45;;;;;;;15.02;6.72;;;;;;;;;;5026700;28;20013;-67
2023/10/18 13:50:11;;;;;;;11.38;6.50;;;;;;;;;;5025218;28;20022;-67
2023/10/18 13:52:42;;;;;;;10.20;5.50;;;;;;;;;;5026735;28;20017;-70
2023/10/18 13:55:07;;;;;;;10.70;5.78;;;;;;;;;;5027304;28;20024;-69
2023/10/18 13:57:33;;;;;;;12.20;6.00;;;;;;;;;;5023967;28;20125;-67
2023/10/18 14:00:02;;;;;;;12.02;6.25;;;;;;;;;;5022454;28;20469;-68
2023/10/18 14:02:27;;;;;;;20.48;5.88;;;;;;;;;;5029116;28;20397;-68
2023/10/18 14:04:53;;;;;;;13.85;5.82;;;;;;;;;;5022698;28;20018;-69
2023/10/18 14:07:21;;;;;;;12.25;5.95;;;;;;;;;;5026775;28;20025;-70
2023/10/18 14:09:47;;;;;;;10.52;5.82;;;;;;;;;;5019328;28;20030;-67
2023/10/18 14:12:12;;;;;;;17.65;6.35;;;;;;;;;;5039069;28;20045;-68
2023/10/18 14:14:38;;;;;;;14.60;5.38;;;;;;;;;;5029070;28;20049;-67
2023/10/18 14:17:03;;;;;;;8.75;5.15;;;;;;;;;;5029612;28;20026;-69
2023/10/18 14:19:29;;;;;;;19.17;6.78;;;;;;;;;;5029878;28;20041;-69
2023/10/18 14:21:54;;;;;;;12.00;5.53;;;;;;;;;;5028946;28;20076;-68
2023/10/18 14:24:25;;;;;;;14.43;5.65;;;;;;;;;;5026447;28;20377;-69
2023/10/18 14:26:50;;;;;;;10.63;5.78;;;;;;;;;;5022847;28;20032;-67
2023/10/18 14:29:15;;;;;;;12.02;5.00;;;;;;;;;;5030289;28;20029;-68
2023/10/18 14:31:41;;;;;;;18.67;5.85;;;;;;;;;;5027425;28;20452;-69
2023/10/18 14:34:07;;;;;;;14.43;6.05;;;;;;;;;;5023436;28;20044;-68
2023/10/18 14:36:32;;;;;;;12.65;6.22;;;;;;;;;;5026327;28;20021;-68
2023/10/18 14:38:57;;;;;;;9.93;5.65;;;;;;;;;;5028163;28;20021;-69
2023/10/18 14:41:24;;;;;;;13.98;5.68;;;;;;;;;;5027090;28;20045;-70
2023/10/18 14:43:51;;;;;;;9.88;5.75;;;;;;;;;;5019109;28;20386;-68
2023/10/18 14:46:19;;;;;;;12.10;5.97;;;;;;;;;;5026372;28;20507;-68
2023/10/18 14:48:45;;;;;;;13.15;6.30;;;;;;;;;;5029147;28;20027;-68
2023/10/18 14:51:10;;;;;;;13.90;5.65;;;;;;;;;;5023237;28;20124;-68
2023/10/18 14:53:36;;;;;;;15.48;6.13;;;;;;;;;;5023338;28;20069;-69
2023/10/18 14:56:05;;;;;;;13.52;5.95;;;;;;;;;;5021992;28;20024;-67
2023/10/18 14:58:30;;;;;;;10.77;5.93;;;;;;;;;;5022221;28;20021;-66
2023/10/18 15:00:55;;;;;;;10.20;5.78;;;;;;;;;;5029471;28;20028;-69
2023/10/18 15:03:22;;;;;;;12.65;6.47;;;;;;;;;;5025352;28;20013;-70
2023/10/18 15:05:48;;;;;;;11.10;5.82;;;;;;;;;;5028069;28;20491;-69
2023/10/18 15:08:13;;;;;;;15.90;6.07;;;;;;;;;;5028655;28;20033;-68
2023/10/18 15:10:40;;;;;;;12.65;6.07;;;;;;;;;;5028466;28;20029;-68
2023/10/18 15:13:05;;;;;;;13.77;6.65;;;;;;;;;;5024027;28;20034;-70
2023/10/18 15:15:33;;;;;;;15.82;6.20;;;;;;;;;;5028852;28;20095;-67
2023/10/18 15:17:58;;;;;;;11.47;6.03;;;;;;;;;;5028505;28;20074;-68
2023/10/18 15:20:26;;;;;;;12.98;6.43;;;;;;;;;;5026834;28;20029;-68
2023/10/18 15:22:52;;;;;;;15.32;5.57;;;;;;;;;;5025306;28;20416;-67
2023/10/18 15:25:17;;;;;;;12.07;6.15;;;;;;;;;;5023838;28;20101;-69